createdAt,value
2018-10-11T00:00:25.487Z,1016.81
2018-10-11T00:01:25.839Z,1016.81
2018-10-11T00:02:25.842Z,1016.84
2018-10-11T00:03:25.413Z,1016.82
2018-10-11T00:04:25.373Z,1016.83
2018-10-11T00:05:25.338Z,1016.86
2018-10-11T00:06:25.317Z,1016.86
2018-10-11T00:07:25.344Z,1016.83
2018-10-11T00:08:25.257Z,1016.84
2018-10-11T00:09:25.791Z,1016.86
2018-10-11T00:10:25.230Z,1016.83
2018-10-11T00:11:25.175Z,1016.82
2018-10-11T00:12:25.343Z,1016.86
2018-10-11T00:13:25.122Z,1016.87
2018-10-11T00:14:25.102Z,1016.86
2018-10-11T00:15:25.068Z,1016.87
2018-10-11T00:16:25.788Z,1016.84
2018-10-11T00:17:25.353Z,1016.84
2018-10-11T00:18:25.790Z,1016.87
2018-10-11T00:19:25.348Z,1016.86
2018-10-11T00:20:24.927Z,1016.88
2018-10-11T00:21:24.909Z,1016.85
2018-10-11T00:22:25.344Z,1016.89
2018-10-11T00:23:24.860Z,1016.89
2018-10-11T00:24:25.794Z,1016.83
2018-10-11T00:25:24.791Z,1016.87
2018-10-11T00:26:25.293Z,1016.88
2018-10-11T00:27:24.743Z,1016.90
2018-10-11T00:28:25.294Z,1016.90
2018-10-11T00:29:24.858Z,1016.91
2018-10-11T00:30:24.653Z,1016.91
2018-10-11T00:31:25.296Z,1016.88
2018-10-11T00:32:24.639Z,1016.93
2018-10-11T00:33:24.572Z,1016.94
2018-10-11T00:34:24.597Z,1016.91
2018-10-11T00:35:25.291Z,1016.95
2018-10-11T00:36:25.295Z,1016.96
2018-10-11T00:37:24.515Z,1016.93
2018-10-11T00:38:24.483Z,1016.90
2018-10-11T00:39:24.400Z,1016.87
2018-10-11T00:40:25.293Z,1016.87
2018-10-11T00:41:25.295Z,1016.84
2018-10-11T00:42:24.328Z,1016.81
2018-10-11T00:43:24.349Z,1016.73
2018-10-11T00:44:24.274Z,1016.77
2018-10-11T00:45:24.796Z,1016.81
2018-10-11T00:46:24.212Z,1016.72
2018-10-11T00:47:24.217Z,1016.73
2018-10-11T00:48:24.349Z,1016.68
2018-10-11T00:49:24.858Z,1016.64
2018-10-11T00:50:24.100Z,1016.62
2018-10-11T00:51:24.795Z,1016.58
2018-10-11T00:52:24.803Z,1016.57
2018-10-11T00:53:24.359Z,1016.60
2018-10-11T00:54:24.798Z,1016.54
2018-10-11T00:55:23.967Z,1016.50
2018-10-11T00:56:24.795Z,1016.52
2018-10-11T00:57:24.797Z,1016.52
2018-10-11T00:58:24.345Z,1016.49
2018-10-11T00:59:24.350Z,1016.50
2018-10-11T01:00:24.828Z,1016.55
2018-10-11T01:01:24.298Z,1016.61
2018-10-11T01:02:23.771Z,1016.50
2018-10-11T01:03:23.744Z,1016.53
2018-10-11T01:04:23.771Z,1016.56
2018-10-11T01:05:23.701Z,1016.57
2018-10-11T01:06:23.661Z,1016.53
2018-10-11T01:07:24.298Z,1016.58
2018-10-11T01:08:24.314Z,1016.52
2018-10-11T01:09:23.881Z,1016.53
2018-10-11T01:10:24.299Z,1016.55
2018-10-11T01:11:23.520Z,1016.50
2018-10-11T01:12:24.303Z,1016.54
2018-10-11T01:13:23.472Z,1016.49
2018-10-11T01:14:23.888Z,1016.56
2018-10-11T01:15:24.308Z,1016.55
2018-10-11T01:16:28.866Z,1016.52
2018-10-11T01:17:24.307Z,1016.58
2018-10-11T01:18:24.305Z,1016.55
2018-10-11T01:19:23.326Z,1016.54
2018-10-11T01:20:23.273Z,1016.62
2018-10-11T01:21:23.246Z,1016.58
2018-10-11T01:22:23.361Z,1016.58
2018-10-11T01:23:23.806Z,1016.53
2018-10-11T01:24:23.801Z,1016.59
2018-10-11T01:25:23.806Z,1016.64
2018-10-11T01:26:23.353Z,1016.60
2018-10-11T01:27:23.805Z,1016.61
2018-10-11T01:28:23.351Z,1016.56
2018-10-11T01:29:23.026Z,1016.59
2018-10-11T01:30:23.009Z,1016.54
2018-10-11T01:31:23.803Z,1016.56
2018-10-11T01:32:23.360Z,1016.56
2018-10-11T01:33:23.809Z,1016.57
2018-10-11T01:34:23.804Z,1016.53
2018-10-11T01:35:23.806Z,1016.54
2018-10-11T01:36:22.835Z,1016.58
2018-10-11T01:37:22.856Z,1016.53
2018-10-11T01:38:22.777Z,1016.51
2018-10-11T01:39:23.338Z,1016.57
2018-10-11T01:40:22.725Z,1016.53
2018-10-11T01:41:23.305Z,1016.56
2018-10-11T01:42:22.876Z,1016.52
2018-10-11T01:43:23.310Z,1016.50
2018-10-11T01:44:22.875Z,1016.47
2018-10-11T01:45:23.313Z,1016.51
2018-10-11T01:46:22.557Z,1016.52
2018-10-11T01:47:22.530Z,1016.47
2018-10-11T01:48:22.508Z,1016.46
2018-10-11T01:49:22.525Z,1016.38
2018-10-11T01:50:23.307Z,1016.43
2018-10-11T01:51:22.417Z,1016.40
2018-10-11T01:52:22.861Z,1016.41
2018-10-11T01:53:22.360Z,1016.36
2018-10-11T01:54:22.877Z,1016.36
2018-10-11T01:55:22.807Z,1016.36
2018-10-11T01:56:22.281Z,1016.37
2018-10-11T01:57:22.819Z,1016.35
2018-10-11T01:58:22.223Z,1016.32
2018-10-11T01:59:22.362Z,1016.27
2018-10-11T02:00:22.370Z,1016.27
2018-10-11T02:01:22.811Z,1016.27
2018-10-11T02:02:22.362Z,1016.21
2018-10-11T02:03:22.081Z,1016.22
2018-10-11T02:04:22.100Z,1016.25
2018-10-11T02:05:22.026Z,1016.22
2018-10-11T02:06:22.810Z,1016.16
2018-10-11T02:07:21.970Z,1016.17
2018-10-11T02:08:21.998Z,1016.16
2018-10-11T02:09:22.859Z,1016.17
2018-10-11T02:10:22.819Z,1016.13
2018-10-11T02:11:22.809Z,1016.17
2018-10-11T02:12:21.829Z,1016.12
2018-10-11T02:13:21.867Z,1016.12
2018-10-11T02:14:21.773Z,1016.13
2018-10-11T02:15:21.746Z,1016.14
2018-10-11T02:16:21.868Z,1016.07
2018-10-11T02:17:22.320Z,1016.13
2018-10-11T02:18:21.662Z,1016.14
2018-10-11T02:19:21.656Z,1016.11
2018-10-11T02:20:21.608Z,1016.14
2018-10-11T02:21:21.873Z,1016.15
2018-10-11T02:22:21.596Z,1016.13
2018-10-11T02:23:21.873Z,1016.15
2018-10-11T02:24:22.558Z,1016.09
2018-10-11T02:25:21.465Z,1016.08
2018-10-11T02:26:22.318Z,1016.11
2018-10-11T02:27:21.455Z,1016.09
2018-10-11T02:28:22.313Z,1016.04
2018-10-11T02:29:22.317Z,1016.03
2018-10-11T02:30:21.330Z,1016.04
2018-10-11T02:31:21.819Z,1016.04
2018-10-11T02:32:21.377Z,1015.98
2018-10-11T02:33:21.822Z,1015.99
2018-10-11T02:34:21.214Z,1016.03
2018-10-11T02:35:21.190Z,1015.98
2018-10-11T02:36:21.205Z,1015.98
2018-10-11T02:37:21.132Z,1015.96
2018-10-11T02:38:21.113Z,1015.98
2018-10-11T02:39:21.118Z,1015.97
2018-10-11T02:40:21.078Z,1015.94
2018-10-11T02:41:21.075Z,1015.96
2018-10-11T02:42:20.998Z,1015.91
2018-10-11T02:43:20.967Z,1015.94
2018-10-11T02:44:20.949Z,1015.92
2018-10-11T02:45:20.908Z,1015.97
2018-10-11T02:46:20.921Z,1015.98
2018-10-11T02:47:20.850Z,1015.93
2018-10-11T02:48:20.825Z,1016.01
2018-10-11T02:49:20.872Z,1015.95
2018-10-11T02:50:21.357Z,1015.98
2018-10-11T02:51:21.319Z,1015.96
2018-10-11T02:52:20.760Z,1015.93
2018-10-11T02:53:21.338Z,1015.96
2018-10-11T02:54:20.655Z,1015.92
2018-10-11T02:55:20.636Z,1015.97
2018-10-11T02:56:20.597Z,1015.94
2018-10-11T02:57:20.881Z,1015.94
2018-10-11T02:58:20.542Z,1015.92
2018-10-11T02:59:21.334Z,1015.89
2018-10-11T03:00:20.532Z,1015.92
2018-10-11T03:01:20.470Z,1015.83
2018-10-11T03:02:20.429Z,1015.86
2018-10-11T03:03:20.398Z,1015.84
2018-10-11T03:04:21.323Z,1015.83
2018-10-11T03:05:20.393Z,1015.82
2018-10-11T03:06:20.825Z,1015.82
2018-10-11T03:07:20.284Z,1015.80
2018-10-11T03:08:20.262Z,1015.77
2018-10-11T03:09:20.233Z,1015.77
2018-10-11T03:10:20.257Z,1015.75
2018-10-11T03:11:20.876Z,1015.76
2018-10-11T03:12:20.148Z,1015.81
2018-10-11T03:13:20.827Z,1015.82
2018-10-11T03:14:20.133Z,1015.78
2018-10-11T03:15:20.066Z,1015.82
2018-10-11T03:16:20.073Z,1015.77
2018-10-11T03:17:20.002Z,1015.78
2018-10-11T03:18:19.974Z,1015.82
2018-10-11T03:19:20.828Z,1015.77
2018-10-11T03:20:20.379Z,1015.75
2018-10-11T03:21:19.887Z,1015.76
2018-10-11T03:22:20.375Z,1015.70
2018-10-11T03:23:19.831Z,1015.74
2018-10-11T03:24:19.901Z,1015.69
2018-10-11T03:25:19.776Z,1015.70
2018-10-11T03:26:20.325Z,1015.69
2018-10-11T03:27:19.877Z,1015.68
2018-10-11T03:28:20.327Z,1015.66
2018-10-11T03:29:19.666Z,1015.67
2018-10-11T03:30:19.672Z,1015.63
2018-10-11T03:31:19.603Z,1015.60
2018-10-11T03:32:19.630Z,1015.61
2018-10-11T03:33:20.328Z,1015.64
2018-10-11T03:34:19.518Z,1015.62
2018-10-11T03:35:19.489Z,1015.63
2018-10-11T03:36:19.466Z,1015.62
2018-10-11T03:37:19.477Z,1015.60
2018-10-11T03:38:19.415Z,1015.64
2018-10-11T03:39:20.327Z,1015.63
2018-10-11T03:40:19.349Z,1015.57
2018-10-11T03:41:19.367Z,1015.60
2018-10-11T03:42:19.291Z,1015.57
2018-10-11T03:43:19.830Z,1015.57
2018-10-11T03:44:19.235Z,1015.54
2018-10-11T03:45:19.831Z,1015.53
2018-10-11T03:46:19.235Z,1015.50
2018-10-11T03:47:19.153Z,1015.52
2018-10-11T03:48:19.123Z,1015.49
2018-10-11T03:49:19.834Z,1015.47
2018-10-11T03:50:19.066Z,1015.48
2018-10-11T03:51:19.074Z,1015.47
2018-10-11T03:52:19.057Z,1015.44
2018-10-11T03:53:18.989Z,1015.45
2018-10-11T03:54:18.948Z,1015.48
2018-10-11T03:55:19.831Z,1015.44
2018-10-11T03:56:18.892Z,1015.47
2018-10-11T03:57:19.391Z,1015.37
2018-10-11T03:58:18.862Z,1015.40
2018-10-11T03:59:19.338Z,1015.45
2018-10-11T04:00:18.782Z,1015.46
2018-10-11T04:01:19.333Z,1015.51
2018-10-11T04:02:18.758Z,1015.52
2018-10-11T04:03:18.693Z,1015.55
2018-10-11T04:04:19.334Z,1015.53
2018-10-11T04:05:18.643Z,1015.52
2018-10-11T04:06:18.610Z,1015.48
2018-10-11T04:07:18.626Z,1015.51
2018-10-11T04:08:19.339Z,1015.52
2018-10-11T04:09:19.376Z,1015.46
2018-10-11T04:10:18.492Z,1015.43
2018-10-11T04:11:19.456Z,1015.39
2018-10-11T04:12:18.473Z,1015.37
2018-10-11T04:13:18.891Z,1015.41
2018-10-11T04:14:18.378Z,1015.35
2018-10-11T04:15:18.349Z,1015.33
2018-10-11T04:16:18.337Z,1015.34
2018-10-11T04:17:18.338Z,1015.36
2018-10-11T04:18:18.857Z,1015.29
2018-10-11T04:19:18.245Z,1015.33
2018-10-11T04:20:18.208Z,1015.33
2018-10-11T04:21:18.837Z,1015.36
2018-10-11T04:22:18.192Z,1015.30
2018-10-11T04:23:18.395Z,1015.33
2018-10-11T04:24:18.846Z,1015.33
2018-10-11T04:25:18.062Z,1015.31
2018-10-11T04:26:18.036Z,1015.29
2018-10-11T04:27:18.004Z,1015.30
2018-10-11T04:28:18.025Z,1015.27
2018-10-11T04:29:17.965Z,1015.26
2018-10-11T04:30:18.846Z,1015.22
2018-10-11T04:31:17.891Z,1015.25
2018-10-11T04:32:17.880Z,1015.22
2018-10-11T04:33:17.878Z,1015.24
2018-10-11T04:34:18.359Z,1015.26
2018-10-11T04:35:17.808Z,1015.24
2018-10-11T04:36:18.342Z,1015.25
2018-10-11T04:37:17.887Z,1015.24
2018-10-11T04:38:17.840Z,1015.22
2018-10-11T04:39:17.677Z,1015.18
2018-10-11T04:40:17.678Z,1015.23
2018-10-11T04:41:18.347Z,1015.23
2018-10-11T04:42:17.625Z,1015.25
2018-10-11T04:43:17.837Z,1015.23
2018-10-11T04:44:17.563Z,1015.20
2018-10-11T04:45:18.337Z,1015.19
2018-10-11T04:46:17.461Z,1015.19
2018-10-11T04:47:18.249Z,1015.18
2018-10-11T04:48:17.465Z,1015.16
2018-10-11T04:49:17.376Z,1015.19
2018-10-11T04:50:18.368Z,1015.14
2018-10-11T04:51:17.358Z,1015.22
2018-10-11T04:52:17.289Z,1015.19
2018-10-11T04:53:17.870Z,1015.20
2018-10-11T04:54:17.235Z,1015.22
2018-10-11T04:55:17.205Z,1015.20
2018-10-11T04:56:17.227Z,1015.18
2018-10-11T04:57:17.841Z,1015.17
2018-10-11T04:58:17.125Z,1015.16
2018-10-11T04:59:17.861Z,1015.19
2018-10-11T05:00:17.057Z,1015.20
2018-10-11T05:01:17.084Z,1015.20
2018-10-11T05:02:17.008Z,1015.20
2018-10-11T05:03:16.974Z,1015.19
2018-10-11T05:04:17.850Z,1015.21
2018-10-11T05:05:16.931Z,1015.19
2018-10-11T05:06:16.934Z,1015.27
2018-10-11T05:07:16.855Z,1015.21
2018-10-11T05:08:17.405Z,1015.22
2018-10-11T05:09:16.810Z,1015.20
2018-10-11T05:10:17.349Z,1015.17
2018-10-11T05:11:16.935Z,1015.19
2018-10-11T05:12:16.713Z,1015.22
2018-10-11T05:13:17.343Z,1015.27
2018-10-11T05:14:16.657Z,1015.21
2018-10-11T05:15:16.628Z,1015.22
2018-10-11T05:16:16.650Z,1015.27
2018-10-11T05:17:16.636Z,1015.27
2018-10-11T05:18:16.543Z,1015.24
2018-10-11T05:19:16.512Z,1015.28
2018-10-11T05:20:17.343Z,1015.27
2018-10-11T05:21:16.500Z,1015.28
2018-10-11T05:22:17.346Z,1015.29
2018-10-11T05:23:16.909Z,1015.27
2018-10-11T05:24:17.365Z,1015.24
2018-10-11T05:25:16.395Z,1015.29
2018-10-11T05:26:16.515Z,1015.30
2018-10-11T05:27:16.288Z,1015.26
2018-10-11T05:28:16.402Z,1015.23
2018-10-11T05:29:16.846Z,1015.25
2018-10-11T05:30:16.204Z,1015.25
2018-10-11T05:31:16.210Z,1015.20
2018-10-11T05:32:16.194Z,1015.20
2018-10-11T05:33:16.172Z,1015.18
2018-10-11T05:34:16.116Z,1015.11
2018-10-11T05:35:16.096Z,1015.04
2018-10-11T05:36:16.848Z,1015.02
2018-10-11T05:37:15.998Z,1015.00
2018-10-11T05:38:16.142Z,1015.02
2018-10-11T05:39:15.942Z,1014.99
2018-10-11T05:40:15.911Z,1014.99
2018-10-11T05:41:15.884Z,1015.01
2018-10-11T05:42:15.861Z,1014.94
2018-10-11T05:43:15.901Z,1014.99
2018-10-11T05:44:15.933Z,1015.06
2018-10-11T05:45:15.766Z,1015.04
2018-10-11T05:46:15.745Z,1014.97
2018-10-11T05:47:15.753Z,1015.03
2018-10-11T05:48:15.683Z,1015.04
2018-10-11T05:49:15.699Z,1015.07
2018-10-11T05:50:15.640Z,1015.06
2018-10-11T05:51:15.598Z,1015.04
2018-10-11T05:52:15.582Z,1015.00
2018-10-11T05:53:15.544Z,1015.04
2018-10-11T05:54:15.553Z,1015.07
2018-10-11T05:55:16.389Z,1015.05
2018-10-11T05:56:15.903Z,1015.07
2018-10-11T05:57:15.438Z,1015.11
2018-10-11T05:58:15.397Z,1015.16
2018-10-11T05:59:15.420Z,1015.16
2018-10-11T06:00:15.342Z,1015.19
2018-10-11T06:01:15.313Z,1015.24
2018-10-11T06:02:15.281Z,1015.24
2018-10-11T06:03:15.256Z,1015.25
2018-10-11T06:04:15.401Z,1015.28
2018-10-11T06:05:15.296Z,1015.24
2018-10-11T06:06:15.168Z,1015.24
2018-10-11T06:07:15.145Z,1015.20
2018-10-11T06:08:15.119Z,1015.18
2018-10-11T06:09:15.124Z,1015.19
2018-10-11T06:10:15.054Z,1015.17
2018-10-11T06:11:15.026Z,1015.19
2018-10-11T06:12:15.038Z,1015.17
2018-10-11T06:13:14.969Z,1015.17
2018-10-11T06:14:14.944Z,1015.15
2018-10-11T06:15:15.854Z,1015.20
2018-10-11T06:16:14.884Z,1015.21
2018-10-11T06:17:14.911Z,1015.17
2018-10-11T06:18:14.828Z,1015.22
2018-10-11T06:19:14.800Z,1015.21
2018-10-11T06:20:14.828Z,1015.22
2018-10-11T06:21:14.744Z,1015.21
2018-10-11T06:22:14.714Z,1015.25
2018-10-11T06:23:14.687Z,1015.20
2018-10-11T06:24:14.657Z,1015.22
2018-10-11T06:25:14.719Z,1015.20
2018-10-11T06:26:14.600Z,1015.21
2018-10-11T06:27:14.568Z,1015.28
2018-10-11T06:28:15.354Z,1015.29
2018-10-11T06:29:14.513Z,1015.32
2018-10-11T06:30:14.512Z,1015.30
2018-10-11T06:31:14.517Z,1015.36
2018-10-11T06:32:14.430Z,1015.42
2018-10-11T06:33:14.400Z,1015.42
2018-10-11T06:34:14.392Z,1015.41
2018-10-11T06:35:14.342Z,1015.41
2018-10-11T06:36:14.619Z,1015.37
2018-10-11T06:37:14.288Z,1015.36
2018-10-11T06:38:14.263Z,1015.31
2018-10-11T06:39:14.233Z,1015.30
2018-10-11T06:40:14.204Z,1015.30
2018-10-11T06:41:14.247Z,1015.33
2018-10-11T06:42:14.213Z,1015.29
2018-10-11T06:43:14.117Z,1015.28
2018-10-11T06:44:14.136Z,1015.32
2018-10-11T06:45:14.068Z,1015.28
2018-10-11T06:46:14.034Z,1015.35
2018-10-11T06:47:14.007Z,1015.37
2018-10-11T06:48:13.988Z,1015.36
2018-10-11T06:49:14.414Z,1015.38
2018-10-11T06:50:13.983Z,1015.35
2018-10-11T06:51:13.891Z,1015.41
2018-10-11T06:52:13.922Z,1015.39
2018-10-11T06:53:13.846Z,1015.37
2018-10-11T06:54:13.811Z,1015.40
2018-10-11T06:55:13.780Z,1015.44
2018-10-11T06:56:13.759Z,1015.43
2018-10-11T06:57:13.774Z,1015.37
2018-10-11T06:58:13.697Z,1015.41
2018-10-11T06:59:14.362Z,1015.30
2018-10-11T07:00:13.642Z,1015.24
2018-10-11T07:01:13.616Z,1015.23
2018-10-11T07:02:13.645Z,1015.17
2018-10-11T07:03:13.561Z,1015.20
2018-10-11T07:04:13.557Z,1015.28
2018-10-11T07:05:13.505Z,1015.29
2018-10-11T07:06:13.484Z,1015.36
2018-10-11T07:07:13.529Z,1015.25
2018-10-11T07:08:13.429Z,1015.27
2018-10-11T07:09:13.396Z,1015.27
2018-10-11T07:10:13.368Z,1015.25
2018-10-11T07:11:13.342Z,1015.24
2018-10-11T07:12:13.426Z,1015.29
2018-10-11T07:13:13.282Z,1015.20
2018-10-11T07:14:13.273Z,1015.27
2018-10-11T07:15:13.229Z,1015.30
2018-10-11T07:16:13.199Z,1015.23
2018-10-11T07:17:13.208Z,1015.28
2018-10-11T07:18:13.183Z,1015.25
2018-10-11T07:19:13.158Z,1015.24
2018-10-11T07:20:13.095Z,1015.25
2018-10-11T07:21:13.060Z,1015.32
2018-10-11T07:22:13.031Z,1015.32
2018-10-11T07:23:13.052Z,1015.26
2018-10-11T07:24:12.977Z,1015.27
2018-10-11T07:25:12.951Z,1015.26
2018-10-11T07:26:12.931Z,1015.26
2018-10-11T07:27:12.904Z,1015.30
2018-10-11T07:28:12.911Z,1015.30
2018-10-11T07:29:12.846Z,1015.25
2018-10-11T07:30:12.816Z,1015.26
2018-10-11T07:31:12.785Z,1015.27
2018-10-11T07:32:12.773Z,1015.32
2018-10-11T07:33:12.784Z,1015.34
2018-10-11T07:34:12.705Z,1015.27
2018-10-11T07:35:12.755Z,1015.31
2018-10-11T07:36:12.653Z,1015.31
2018-10-11T07:37:12.624Z,1015.28
2018-10-11T07:38:12.924Z,1015.26
2018-10-11T07:39:12.571Z,1015.30
2018-10-11T07:40:12.617Z,1015.36
2018-10-11T07:41:12.519Z,1015.35
2018-10-11T07:42:12.487Z,1015.34
2018-10-11T07:43:12.549Z,1015.34
2018-10-11T07:44:12.477Z,1015.40
2018-10-11T07:45:12.408Z,1015.32
2018-10-11T07:46:12.388Z,1015.40
2018-10-11T07:47:12.450Z,1015.44
2018-10-11T07:48:12.402Z,1015.41
2018-10-11T07:49:12.298Z,1015.43
2018-10-11T07:50:12.276Z,1015.39
2018-10-11T07:51:12.267Z,1015.39
2018-10-11T07:52:12.224Z,1015.38
2018-10-11T07:53:12.238Z,1015.44
2018-10-11T07:54:12.166Z,1015.41
2018-10-11T07:55:12.140Z,1015.42
2018-10-11T07:56:12.115Z,1015.41
2018-10-11T07:57:12.139Z,1015.42
2018-10-11T07:58:12.059Z,1015.45
2018-10-11T07:59:12.872Z,1015.46
2018-10-11T08:00:12.008Z,1015.41
2018-10-11T08:01:12.029Z,1015.36
2018-10-11T08:02:12.038Z,1015.41
2018-10-11T08:03:11.940Z,1015.39
2018-10-11T08:04:11.910Z,1015.39
2018-10-11T08:05:11.871Z,1015.32
2018-10-11T08:06:11.847Z,1015.37
2018-10-11T08:07:11.890Z,1015.40
2018-10-11T08:08:11.851Z,1015.34
2018-10-11T08:09:11.830Z,1015.34
2018-10-11T08:10:11.785Z,1015.32
2018-10-11T08:11:11.764Z,1015.39
2018-10-11T08:12:11.705Z,1015.33
2018-10-11T08:13:11.721Z,1015.37
2018-10-11T08:14:11.648Z,1015.39
2018-10-11T08:15:11.608Z,1015.40
2018-10-11T08:16:11.699Z,1015.41
2018-10-11T08:17:12.031Z,1015.43
2018-10-11T08:18:11.591Z,1015.44
2018-10-11T08:19:11.675Z,1015.47
2018-10-11T08:20:11.528Z,1015.46
2018-10-11T08:21:11.449Z,1015.44
2018-10-11T08:22:11.426Z,1015.46
2018-10-11T08:23:11.445Z,1015.42
2018-10-11T08:24:11.417Z,1015.46
2018-10-11T08:25:11.524Z,1015.45
2018-10-11T08:26:11.717Z,1015.45
2018-10-11T08:27:11.359Z,1015.43
2018-10-11T08:28:11.270Z,1015.43
2018-10-11T08:29:11.245Z,1015.43
2018-10-11T08:30:11.431Z,1015.50
2018-10-11T08:31:11.192Z,1015.46
2018-10-11T08:32:11.236Z,1015.47
2018-10-11T08:33:11.219Z,1015.41
2018-10-11T08:34:11.118Z,1015.45
2018-10-11T08:35:11.089Z,1015.41
2018-10-11T08:36:11.105Z,1015.33
2018-10-11T08:37:11.034Z,1015.33
2018-10-11T08:38:11.345Z,1015.36
2018-10-11T08:39:10.980Z,1015.40
2018-10-11T08:40:10.968Z,1015.37
2018-10-11T08:41:10.977Z,1015.33
2018-10-11T08:42:10.907Z,1015.39
2018-10-11T08:43:10.879Z,1015.38
2018-10-11T08:44:10.898Z,1015.38
2018-10-11T08:45:10.831Z,1015.43
2018-10-11T08:46:10.851Z,1015.40
2018-10-11T08:47:10.775Z,1015.42
2018-10-11T08:48:11.296Z,1015.44
2018-10-11T08:49:10.770Z,1015.40
2018-10-11T08:50:10.712Z,1015.44
2018-10-11T08:51:10.721Z,1015.36
2018-10-11T08:52:10.648Z,1015.36
2018-10-11T08:53:10.667Z,1015.36
2018-10-11T08:54:10.598Z,1015.33
2018-10-11T08:55:10.577Z,1015.36
2018-10-11T08:56:10.554Z,1015.30
2018-10-11T08:57:10.523Z,1015.33
2018-10-11T08:58:11.388Z,1015.36
2018-10-11T08:59:10.527Z,1015.35
2018-10-11T09:00:10.535Z,1015.40
2018-10-11T09:01:10.426Z,1015.36
2018-10-11T09:02:10.393Z,1015.41
2018-10-11T09:03:10.443Z,1015.39
2018-10-11T09:04:10.412Z,1015.38
2018-10-11T09:05:10.362Z,1015.36
2018-10-11T09:06:10.294Z,1015.37
2018-10-11T09:07:10.269Z,1015.37
2018-10-11T09:08:10.298Z,1015.41
2018-10-11T09:09:10.889Z,1015.38
2018-10-11T09:10:10.200Z,1015.41
2018-10-11T09:11:10.170Z,1015.42
2018-10-11T09:12:10.145Z,1015.42
2018-10-11T09:13:10.160Z,1015.39
2018-10-11T09:14:10.139Z,1015.43
2018-10-11T09:15:10.065Z,1015.41
2018-10-11T09:16:10.892Z,1015.43
2018-10-11T09:17:10.053Z,1015.44
2018-10-11T09:18:09.994Z,1015.44
2018-10-11T09:19:10.012Z,1015.46
2018-10-11T09:20:09.976Z,1015.45
2018-10-11T09:21:09.943Z,1015.40
2018-10-11T09:22:09.906Z,1015.43
2018-10-11T09:23:09.898Z,1015.46
2018-10-11T09:24:09.903Z,1015.40
2018-10-11T09:25:09.826Z,1015.38
2018-10-11T09:26:09.814Z,1015.39
2018-10-11T09:27:09.825Z,1015.40
2018-10-11T09:28:09.755Z,1015.41
2018-10-11T09:29:09.768Z,1015.35
2018-10-11T09:30:09.775Z,1015.35
2018-10-11T09:31:09.670Z,1015.37
2018-10-11T09:32:09.665Z,1015.34
2018-10-11T09:33:09.659Z,1015.37
2018-10-11T09:34:09.972Z,1015.36
2018-10-11T09:35:09.629Z,1015.41
2018-10-11T09:36:09.553Z,1015.37
2018-10-11T09:37:09.530Z,1015.37
2018-10-11T09:38:09.528Z,1015.40
2018-10-11T09:39:09.500Z,1015.41
2018-10-11T09:40:09.497Z,1015.35
2018-10-11T09:41:09.430Z,1015.38
2018-10-11T09:42:09.400Z,1015.49
2018-10-11T09:43:09.488Z,1015.45
2018-10-11T09:44:09.352Z,1015.36
2018-10-11T09:45:09.371Z,1015.39
2018-10-11T09:46:09.302Z,1015.44
2018-10-11T09:47:09.303Z,1015.47
2018-10-11T09:48:09.284Z,1015.47
2018-10-11T09:49:09.240Z,1015.51
2018-10-11T09:50:09.248Z,1015.51
2018-10-11T09:51:09.182Z,1015.54
2018-10-11T09:52:09.156Z,1015.54
2018-10-11T09:53:09.138Z,1015.46
2018-10-11T09:54:09.120Z,1015.49
2018-10-11T09:55:09.128Z,1015.48
2018-10-11T09:56:09.057Z,1015.49
2018-10-11T09:57:09.035Z,1015.45
2018-10-11T09:58:09.008Z,1015.45
2018-10-11T09:59:09.963Z,1015.47
2018-10-11T10:00:08.961Z,1015.53
2018-10-11T10:01:08.942Z,1015.49
2018-10-11T10:02:08.981Z,1015.49
2018-10-11T10:03:08.933Z,1015.51
2018-10-11T10:04:08.872Z,1015.45
2018-10-11T10:05:08.894Z,1015.43
2018-10-11T10:06:08.816Z,1015.43
2018-10-11T10:07:08.796Z,1015.39
2018-10-11T10:08:08.766Z,1015.47
2018-10-11T10:09:08.770Z,1015.45
2018-10-11T10:10:08.767Z,1015.45
2018-10-11T10:11:08.702Z,1015.52
2018-10-11T10:12:08.671Z,1015.48
2018-10-11T10:13:08.686Z,1015.56
2018-10-11T10:14:08.650Z,1015.54
2018-10-11T10:15:08.611Z,1015.58
2018-10-11T10:16:08.623Z,1015.62
2018-10-11T10:17:08.552Z,1015.60
2018-10-11T10:18:08.573Z,1015.56
2018-10-11T10:19:08.528Z,1015.55
2018-10-11T10:20:08.486Z,1015.48
2018-10-11T10:21:08.482Z,1015.46
2018-10-11T10:22:08.439Z,1015.44
2018-10-11T10:23:08.454Z,1015.42
2018-10-11T10:24:08.388Z,1015.40
2018-10-11T10:25:08.915Z,1015.40
2018-10-11T10:26:08.343Z,1015.28
2018-10-11T10:27:08.417Z,1015.35
2018-10-11T10:28:08.348Z,1015.29
2018-10-11T10:29:08.305Z,1015.39
2018-10-11T10:30:08.252Z,1015.33
2018-10-11T10:31:08.912Z,1015.28
2018-10-11T10:32:08.197Z,1015.27
2018-10-11T10:33:08.231Z,1015.25
2018-10-11T10:34:08.183Z,1015.21
2018-10-11T10:35:08.127Z,1015.22
2018-10-11T10:36:08.104Z,1015.21
2018-10-11T10:37:08.085Z,1015.20
2018-10-11T10:38:08.101Z,1015.16
2018-10-11T10:39:08.099Z,1015.12
2018-10-11T10:40:08.009Z,1015.12
2018-10-11T10:41:07.986Z,1015.13
2018-10-11T10:42:07.962Z,1015.10
2018-10-11T10:43:07.995Z,1015.12
2018-10-11T10:44:07.970Z,1015.15
2018-10-11T10:45:07.930Z,1015.14
2018-10-11T10:46:07.873Z,1015.09
2018-10-11T10:47:07.859Z,1015.11
2018-10-11T10:48:07.821Z,1015.11
2018-10-11T10:49:07.841Z,1015.11
2018-10-11T10:50:07.774Z,1015.12
2018-10-11T10:51:08.366Z,1015.11
2018-10-11T10:52:07.728Z,1015.10
2018-10-11T10:53:07.711Z,1015.15
2018-10-11T10:54:07.749Z,1015.11
2018-10-11T10:55:07.701Z,1015.09
2018-10-11T10:56:07.637Z,1015.05
2018-10-11T10:57:08.421Z,1015.10
2018-10-11T10:58:08.417Z,1015.11
2018-10-11T10:59:08.110Z,1015.05
2018-10-11T11:00:07.972Z,1015.08
2018-10-11T11:01:07.520Z,1015.12
2018-10-11T11:02:07.496Z,1015.12
2018-10-11T11:03:08.425Z,1015.12
2018-10-11T11:04:07.533Z,1015.05
2018-10-11T11:05:07.492Z,1015.06
2018-10-11T11:06:07.405Z,1015.08
2018-10-11T11:07:07.392Z,1015.04
2018-10-11T11:08:07.360Z,1014.97
2018-10-11T11:09:07.372Z,1015.02
2018-10-11T11:10:07.354Z,1014.99
2018-10-11T11:11:07.287Z,1014.99
2018-10-11T11:12:07.272Z,1014.97
2018-10-11T11:13:07.293Z,1014.91
2018-10-11T11:14:07.265Z,1015.00
2018-10-11T11:15:07.194Z,1014.91
2018-10-11T11:16:07.226Z,1014.86
2018-10-11T11:17:07.147Z,1014.89
2018-10-11T11:18:07.126Z,1014.88
2018-10-11T11:19:07.103Z,1014.85
2018-10-11T11:20:07.485Z,1014.81
2018-10-11T11:21:07.057Z,1014.75
2018-10-11T11:22:07.049Z,1014.71
2018-10-11T11:23:07.014Z,1014.72
2018-10-11T11:24:07.035Z,1014.70
2018-10-11T11:25:06.988Z,1014.67
2018-10-11T11:26:06.945Z,1014.68
2018-10-11T11:27:06.925Z,1014.70
2018-10-11T11:28:06.895Z,1014.70
2018-10-11T11:29:06.915Z,1014.67
2018-10-11T11:30:06.898Z,1014.64
2018-10-11T11:31:06.872Z,1014.66
2018-10-11T11:32:06.811Z,1014.56
2018-10-11T11:33:06.786Z,1014.69
2018-10-11T11:34:06.762Z,1014.64
2018-10-11T11:35:06.791Z,1014.65
2018-10-11T11:36:06.719Z,1014.62
2018-10-11T11:37:06.693Z,1014.69
2018-10-11T11:38:06.670Z,1014.67
2018-10-11T11:39:06.650Z,1014.67
2018-10-11T11:40:06.704Z,1014.71
2018-10-11T11:41:06.610Z,1014.71
2018-10-11T11:42:06.578Z,1014.71
2018-10-11T11:43:06.561Z,1014.66
2018-10-11T11:44:06.533Z,1014.65
2018-10-11T11:45:06.573Z,1014.71
2018-10-11T11:46:06.489Z,1014.67
2018-10-11T11:47:06.466Z,1014.61
2018-10-11T11:48:06.455Z,1014.57
2018-10-11T11:49:06.430Z,1014.53
2018-10-11T11:50:06.445Z,1014.54
2018-10-11T11:51:06.374Z,1014.51
2018-10-11T11:52:06.426Z,1014.52
2018-10-11T11:53:06.362Z,1014.58
2018-10-11T11:54:06.311Z,1014.51
2018-10-11T11:55:06.284Z,1014.52
2018-10-11T11:56:06.301Z,1014.53
2018-10-11T11:57:06.290Z,1014.56
2018-10-11T11:58:06.270Z,1014.52
2018-10-11T11:59:06.227Z,1014.57
2018-10-11T12:00:06.181Z,1014.56
2018-10-11T12:01:06.193Z,1014.59
2018-10-11T12:02:06.205Z,1014.55
2018-10-11T12:03:06.123Z,1014.55
2018-10-11T12:04:06.089Z,1014.50
2018-10-11T12:05:06.103Z,1014.56